sensor_id;sensor_type;location;lat;lon;timestamp;P1;durP1;ratioP1;P2;durP2;ratioP2
27746;SDS011;15138;51.012;4.692;2023-05-09T00:01:03;13.82;;;7.30;;
27746;SDS011;15138;51.012;4.692;2023-05-09T00:03:32;11.27;;;6.68;;
27746;SDS011;15138;51.012;4.692;2023-05-09T00:06:01;12.63;;;7.30;;
27746;SDS011;15138;51.012;4.692;2023-05-09T00:08:30;15.00;;;8.10;;
27746;SDS011;15138;51.012;4.692;2023-05-09T00:10:59;13.82;;;6.18;;
27746;SDS011;15138;51.012;4.692;2023-05-09T00:13:28;12.82;;;7.70;;
27746;SDS011;15138;51.012;4.692;2023-05-09T00:15:56;13.98;;;7.75;;
27746;SDS011;15138;51.012;4.692;2023-05-09T00:18:24;13.38;;;7.75;;
27746;SDS011;15138;51.012;4.692;2023-05-09T00:20:53;13.02;;;7.53;;
27746;SDS011;15138;51.012;4.692;2023-05-09T00:23:22;11.90;;;7.30;;
27746;SDS011;15138;51.012;4.692;2023-05-09T00:25:51;11.80;;;7.47;;
27746;SDS011;15138;51.012;4.692;2023-05-09T00:28:19;12.35;;;7.20;;
27746;SDS011;15138;51.012;4.692;2023-05-09T00:30:47;11.18;;;6.25;;
27746;SDS011;15138;51.012;4.692;2023-05-09T00:33:16;12.48;;;7.10;;
27746;SDS011;15138;51.012;4.692;2023-05-09T00:35:44;10.77;;;6.65;;
27746;SDS011;15138;51.012;4.692;2023-05-09T00:38:12;12.40;;;6.97;;
27746;SDS011;15138;51.012;4.692;2023-05-09T00:40:40;10.07;;;6.32;;
27746;SDS011;15138;51.012;4.692;2023-05-09T00:43:10;12.65;;;7.20;;
27746;SDS011;15138;51.012;4.692;2023-05-09T00:45:38;12.57;;;6.68;;
27746;SDS011;15138;51.012;4.692;2023-05-09T00:48:06;9.75;;;6.32;;
27746;SDS011;15138;51.012;4.692;2023-05-09T00:50:35;12.85;;;7.10;;
27746;SDS011;15138;51.012;4.692;2023-05-09T00:53:03;11.65;;;6.78;;
27746;SDS011;15138;51.012;4.692;2023-05-09T00:55:32;11.38;;;6.65;;
27746;SDS011;15138;51.012;4.692;2023-05-09T00:58:01;12.05;;;6.95;;
27746;SDS011;15138;51.012;4.692;2023-05-09T01:00:31;14.40;;;7.38;;
27746;SDS011;15138;51.012;4.692;2023-05-09T01:02:59;9.77;;;6.78;;
27746;SDS011;15138;51.012;4.692;2023-05-09T01:05:29;10.07;;;6.35;;
27746;SDS011;15138;51.012;4.692;2023-05-09T01:08:04;13.57;;;6.72;;
27746;SDS011;15138;51.012;4.692;2023-05-09T01:10:38;11.00;;;6.90;;
27746;SDS011;15138;51.012;4.692;2023-05-09T01:13:16;11.25;;;6.88;;
27746;SDS011;15138;51.012;4.692;2023-05-09T01:15:50;10.75;;;6.47;;
27746;SDS011;15138;51.012;4.692;2023-05-09T01:18:26;14.57;;;6.80;;
27746;SDS011;15138;51.012;4.692;2023-05-09T01:21:00;11.88;;;6.97;;
27746;SDS011;15138;51.012;4.692;2023-05-09T01:26:43;10.65;;;6.03;;
27746;SDS011;15138;51.012;4.692;2023-05-09T01:29:18;13.10;;;6.80;;
27746;SDS011;15138;51.012;4.692;2023-05-09T01:32:01;13.10;;;6.90;;
27746;SDS011;15138;51.012;4.692;2023-05-09T01:34:32;10.43;;;5.28;;
27746;SDS011;15138;51.012;4.692;2023-05-09T01:37:03;7.63;;;4.40;;
27746;SDS011;15138;51.012;4.692;2023-05-09T01:39:33;13.05;;;7.03;;
27746;SDS011;15138;51.012;4.692;2023-05-09T01:42:07;11.88;;;6.25;;
27746;SDS011;15138;51.012;4.692;2023-05-09T01:44:40;11.00;;;6.10;;
27746;SDS011;15138;51.012;4.692;2023-05-09T01:47:09;11.13;;;5.70;;
27746;SDS011;15138;51.012;4.692;2023-05-09T01:49:38;16.38;;;6.47;;
27746;SDS011;15138;51.012;4.692;2023-05-09T01:52:10;9.95;;;6.50;;
27746;SDS011;15138;51.012;4.692;2023-05-09T01:54:41;12.48;;;6.75;;
27746;SDS011;15138;51.012;4.692;2023-05-09T01:57:10;12.05;;;6.22;;
27746;SDS011;15138;51.012;4.692;2023-05-09T01:59:41;13.57;;;6.28;;
27746;SDS011;15138;51.012;4.692;2023-05-09T02:02:11;9.07;;;5.90;;
27746;SDS011;15138;51.012;4.692;2023-05-09T02:04:40;11.68;;;6.40;;
27746;SDS011;15138;51.012;4.692;2023-05-09T02:07:09;11.65;;;6.32;;
27746;SDS011;15138;51.012;4.692;2023-05-09T02:09:39;10.85;;;6.43;;
27746;SDS011;15138;51.012;4.692;2023-05-09T02:12:07;10.02;;;6.18;;
27746;SDS011;15138;51.012;4.692;2023-05-09T02:14:36;10.32;;;5.65;;
27746;SDS011;15138;51.012;4.692;2023-05-09T02:17:05;12.13;;;6.65;;
27746;SDS011;15138;51.012;4.692;2023-05-09T02:19:35;11.02;;;5.75;;
27746;SDS011;15138;51.012;4.692;2023-05-09T02:22:03;9.27;;;6.20;;
27746;SDS011;15138;51.012;4.692;2023-05-09T02:24:31;11.80;;;6.20;;
27746;SDS011;15138;51.012;4.692;2023-05-09T02:27:00;9.40;;;5.80;;
27746;SDS011;15138;51.012;4.692;2023-05-09T02:29:30;12.13;;;6.50;;
27746;SDS011;15138;51.012;4.692;2023-05-09T02:32:08;9.00;;;6.00;;
27746;SDS011;15138;51.012;4.692;2023-05-09T02:34:38;13.60;;;6.30;;
27746;SDS011;15138;51.012;4.692;2023-05-09T02:37:08;12.75;;;6.45;;
27746;SDS011;15138;51.012;4.692;2023-05-09T02:39:37;12.60;;;6.45;;
27746;SDS011;15138;51.012;4.692;2023-05-09T02:42:06;9.80;;;5.68;;
27746;SDS011;15138;51.012;4.692;2023-05-09T02:44:36;10.20;;;4.95;;
27746;SDS011;15138;51.012;4.692;2023-05-09T02:47:05;9.93;;;6.05;;
27746;SDS011;15138;51.012;4.692;2023-05-09T02:49:35;9.40;;;5.40;;
27746;SDS011;15138;51.012;4.692;2023-05-09T02:52:03;11.32;;;6.65;;
27746;SDS011;15138;51.012;4.692;2023-05-09T02:54:32;11.63;;;5.78;;
27746;SDS011;15138;51.012;4.692;2023-05-09T02:57:00;14.25;;;6.53;;
27746;SDS011;15138;51.012;4.692;2023-05-09T02:59:29;11.25;;;5.80;;
27746;SDS011;15138;51.012;4.692;2023-05-09T03:01:58;11.95;;;6.28;;
27746;SDS011;15138;51.012;4.692;2023-05-09T03:04:26;9.48;;;6.05;;
27746;SDS011;15138;51.012;4.692;2023-05-09T03:06:57;11.00;;;6.13;;
27746;SDS011;15138;51.012;4.692;2023-05-09T03:09:25;11.13;;;6.60;;
27746;SDS011;15138;51.012;4.692;2023-05-09T03:11:54;11.82;;;6.20;;
27746;SDS011;15138;51.012;4.692;2023-05-09T03:14:22;10.88;;;6.07;;
27746;SDS011;15138;51.012;4.692;2023-05-09T03:16:51;10.00;;;5.85;;
27746;SDS011;15138;51.012;4.692;2023-05-09T03:19:19;11.07;;;6.32;;
27746;SDS011;15138;51.012;4.692;2023-05-09T03:21:48;9.80;;;5.80;;
27746;SDS011;15138;51.012;4.692;2023-05-09T03:24:17;8.45;;;5.72;;
27746;SDS011;15138;51.012;4.692;2023-05-09T03:26:46;11.82;;;6.10;;
27746;SDS011;15138;51.012;4.692;2023-05-09T03:29:14;9.27;;;5.60;;
27746;SDS011;15138;51.012;4.692;2023-05-09T03:31:43;11.07;;;5.45;;
27746;SDS011;15138;51.012;4.692;2023-05-09T03:34:11;7.25;;;5.35;;
27746;SDS011;15138;51.012;4.692;2023-05-09T03:36:40;7.78;;;5.13;;
27746;SDS011;15138;51.012;4.692;2023-05-09T03:39:09;9.95;;;6.00;;
27746;SDS011;15138;51.012;4.692;2023-05-09T03:41:39;9.63;;;5.75;;
27746;SDS011;15138;51.012;4.692;2023-05-09T03:44:08;10.57;;;5.70;;
27746;SDS011;15138;51.012;4.692;2023-05-09T03:46:37;12.27;;;5.70;;
27746;SDS011;15138;51.012;4.692;2023-05-09T03:49:05;10.15;;;5.30;;
27746;SDS011;15138;51.012;4.692;2023-05-09T03:51:34;9.45;;;5.22;;
27746;SDS011;15138;51.012;4.692;2023-05-09T03:54:04;11.68;;;5.90;;
27746;SDS011;15138;51.012;4.692;2023-05-09T03:56:33;9.75;;;5.10;;
27746;SDS011;15138;51.012;4.692;2023-05-09T03:59:02;13.98;;;5.78;;
27746;SDS011;15138;51.012;4.692;2023-05-09T04:01:31;9.52;;;5.70;;
27746;SDS011;15138;51.012;4.692;2023-05-09T04:04:00;9.43;;;5.72;;
27746;SDS011;15138;51.012;4.692;2023-05-09T04:06:28;10.30;;;5.80;;
27746;SDS011;15138;51.012;4.692;2023-05-09T04:08:58;14.30;;;5.55;;
27746;SDS011;15138;51.012;4.692;2023-05-09T04:11:26;13.48;;;6.03;;
27746;SDS011;15138;51.012;4.692;2023-05-09T04:13:55;9.05;;;5.60;;
27746;SDS011;15138;51.012;4.692;2023-05-09T04:16:25;10.73;;;5.80;;
27746;SDS011;15138;51.012;4.692;2023-05-09T04:18:53;8.30;;;4.95;;
27746;SDS011;15138;51.012;4.692;2023-05-09T04:21:22;11.57;;;6.28;;
27746;SDS011;15138;51.012;4.692;2023-05-09T04:23:51;9.73;;;5.88;;
27746;SDS011;15138;51.012;4.692;2023-05-09T04:26:19;8.05;;;5.53;;
27746;SDS011;15138;51.012;4.692;2023-05-09T04:28:48;7.90;;;4.70;;
27746;SDS011;15138;51.012;4.692;2023-05-09T04:31:18;11.73;;;6.03;;
27746;SDS011;15138;51.012;4.692;2023-05-09T04:33:48;12.30;;;5.35;;
27746;SDS011;15138;51.012;4.692;2023-05-09T04:36:16;13.38;;;6.00;;
27746;SDS011;15138;51.012;4.692;2023-05-09T04:38:45;8.32;;;5.10;;
27746;SDS011;15138;51.012;4.692;2023-05-09T04:41:14;9.63;;;5.95;;
27746;SDS011;15138;51.012;4.692;2023-05-09T04:43:42;11.50;;;5.43;;
27746;SDS011;15138;51.012;4.692;2023-05-09T04:46:11;6.40;;;4.45;;
27746;SDS011;15138;51.012;4.692;2023-05-09T04:48:39;9.15;;;5.60;;
27746;SDS011;15138;51.012;4.692;2023-05-09T04:51:09;12.13;;;6.70;;
27746;SDS011;15138;51.012;4.692;2023-05-09T04:53:37;9.75;;;5.68;;
27746;SDS011;15138;51.012;4.692;2023-05-09T04:56:06;10.65;;;5.93;;
27746;SDS011;15138;51.012;4.692;2023-05-09T04:58:35;11.23;;;6.18;;
27746;SDS011;15138;51.012;4.692;2023-05-09T05:01:04;11.35;;;6.70;;
27746;SDS011;15138;51.012;4.692;2023-05-09T05:03:33;10.55;;;6.28;;
27746;SDS011;15138;51.012;4.692;2023-05-09T05:06:01;11.93;;;5.95;;
27746;SDS011;15138;51.012;4.692;2023-05-09T05:08:31;10.23;;;4.82;;
27746;SDS011;15138;51.012;4.692;2023-05-09T05:10:59;9.70;;;5.68;;
27746;SDS011;15138;51.012;4.692;2023-05-09T05:13:28;9.75;;;5.30;;
27746;SDS011;15138;51.012;4.692;2023-05-09T05:15:56;12.10;;;5.32;;
27746;SDS011;15138;51.012;4.692;2023-05-09T05:18:25;14.55;;;6.32;;
27746;SDS011;15138;51.012;4.692;2023-05-09T05:20:53;9.88;;;6.40;;
27746;SDS011;15138;51.012;4.692;2023-05-09T05:23:22;11.93;;;6.82;;
27746;SDS011;15138;51.012;4.692;2023-05-09T05:25:51;11.70;;;6.78;;
27746;SDS011;15138;51.012;4.692;2023-05-09T05:28:20;11.35;;;6.22;;
27746;SDS011;15138;51.012;4.692;2023-05-09T05:30:48;12.90;;;5.20;;
27746;SDS011;15138;51.012;4.692;2023-05-09T05:33:17;14.20;;;6.47;;
27746;SDS011;15138;51.012;4.692;2023-05-09T05:35:45;15.02;;;6.88;;
27746;SDS011;15138;51.012;4.692;2023-05-09T05:38:14;9.60;;;6.63;;
27746;SDS011;15138;51.012;4.692;2023-05-09T05:40:42;11.75;;;7.45;;
27746;SDS011;15138;51.012;4.692;2023-05-09T05:43:12;9.07;;;5.93;;
27746;SDS011;15138;51.012;4.692;2023-05-09T05:45:40;9.82;;;5.85;;
27746;SDS011;15138;51.012;4.692;2023-05-09T05:48:09;11.10;;;6.85;;
27746;SDS011;15138;51.012;4.692;2023-05-09T05:50:37;14.15;;;8.05;;
27746;SDS011;15138;51.012;4.692;2023-05-09T05:53:06;11.95;;;8.27;;
27746;SDS011;15138;51.012;4.692;2023-05-09T05:55:34;10.52;;;7.20;;
27746;SDS011;15138;51.012;4.692;2023-05-09T05:58:03;9.70;;;6.55;;
27746;SDS011;15138;51.012;4.692;2023-05-09T06:00:32;12.43;;;7.80;;
27746;SDS011;15138;51.012;4.692;2023-05-09T06:03:01;14.32;;;8.15;;
27746;SDS011;15138;51.012;4.692;2023-05-09T06:05:30;7.72;;;4.93;;
27746;SDS011;15138;51.012;4.692;2023-05-09T06:07:58;13.88;;;8.50;;
27746;SDS011;15138;51.012;4.692;2023-05-09T06:10:26;10.73;;;7.78;;
27746;SDS011;15138;51.012;4.692;2023-05-09T06:12:55;13.27;;;7.68;;
27746;SDS011;15138;51.012;4.692;2023-05-09T06:15:23;11.75;;;6.75;;
27746;SDS011;15138;51.012;4.692;2023-05-09T06:17:53;11.23;;;7.28;;
27746;SDS011;15138;51.012;4.692;2023-05-09T06:20:22;14.30;;;8.57;;
27746;SDS011;15138;51.012;4.692;2023-05-09T06:22:50;9.98;;;7.72;;
27746;SDS011;15138;51.012;4.692;2023-05-09T06:25:19;17.65;;;8.93;;
27746;SDS011;15138;51.012;4.692;2023-05-09T06:27:47;19.13;;;8.10;;
27746;SDS011;15138;51.012;4.692;2023-05-09T06:30:16;12.55;;;8.48;;
27746;SDS011;15138;51.012;4.692;2023-05-09T06:32:53;12.65;;;8.27;;
27746;SDS011;15138;51.012;4.692;2023-05-09T06:35:23;16.02;;;7.20;;
27746;SDS011;15138;51.012;4.692;2023-05-09T06:37:51;14.85;;;9.55;;
27746;SDS011;15138;51.012;4.692;2023-05-09T06:40:20;14.18;;;8.63;;
27746;SDS011;15138;51.012;4.692;2023-05-09T06:42:48;15.30;;;9.05;;
27746;SDS011;15138;51.012;4.692;2023-05-09T06:45:17;13.60;;;9.63;;
27746;SDS011;15138;51.012;4.692;2023-05-09T06:47:46;14.52;;;7.80;;
27746;SDS011;15138;51.012;4.692;2023-05-09T06:50:16;11.30;;;7.70;;
27746;SDS011;15138;51.012;4.692;2023-05-09T06:52:44;14.45;;;9.57;;
27746;SDS011;15138;51.012;4.692;2023-05-09T06:55:12;12.50;;;9.63;;
27746;SDS011;15138;51.012;4.692;2023-05-09T06:57:41;13.13;;;8.40;;
27746;SDS011;15138;51.012;4.692;2023-05-09T07:00:10;15.68;;;9.93;;
27746;SDS011;15138;51.012;4.692;2023-05-09T07:02:39;15.57;;;9.55;;
27746;SDS011;15138;51.012;4.692;2023-05-09T07:05:08;15.20;;;10.15;;
27746;SDS011;15138;51.012;4.692;2023-05-09T07:07:38;15.05;;;10.07;;
27746;SDS011;15138;51.012;4.692;2023-05-09T07:10:07;15.18;;;9.45;;
27746;SDS011;15138;51.012;4.692;2023-05-09T07:12:38;19.75;;;10.52;;
27746;SDS011;15138;51.012;4.692;2023-05-09T07:15:07;15.98;;;10.32;;
27746;SDS011;15138;51.012;4.692;2023-05-09T07:17:36;16.95;;;10.85;;
27746;SDS011;15138;51.012;4.692;2023-05-09T07:20:05;13.35;;;10.10;;
27746;SDS011;15138;51.012;4.692;2023-05-09T07:22:34;16.27;;;10.38;;
27746;SDS011;15138;51.012;4.692;2023-05-09T07:25:05;15.30;;;10.55;;
27746;SDS011;15138;51.012;4.692;2023-05-09T07:27:34;12.98;;;10.00;;
27746;SDS011;15138;51.012;4.692;2023-05-09T07:30:03;16.13;;;10.85;;
27746;SDS011;15138;51.012;4.692;2023-05-09T07:32:31;15.50;;;10.77;;
27746;SDS011;15138;51.012;4.692;2023-05-09T07:35:00;19.40;;;11.15;;
27746;SDS011;15138;51.012;4.692;2023-05-09T07:37:29;22.17;;;14.02;;
27746;SDS011;15138;51.012;4.692;2023-05-09T07:39:57;17.65;;;10.15;;
27746;SDS011;15138;51.012;4.692;2023-05-09T07:42:28;18.25;;;10.65;;
27746;SDS011;15138;51.012;4.692;2023-05-09T07:44:57;16.83;;;11.10;;
27746;SDS011;15138;51.012;4.692;2023-05-09T07:47:26;13.23;;;9.57;;
27746;SDS011;15138;51.012;4.692;2023-05-09T07:49:54;14.82;;;9.57;;
27746;SDS011;15138;51.012;4.692;2023-05-09T07:52:23;13.63;;;8.65;;
27746;SDS011;15138;51.012;4.692;2023-05-09T07:54:51;13.38;;;8.20;;
27746;SDS011;15138;51.012;4.692;2023-05-09T07:57:20;14.05;;;8.30;;
27746;SDS011;15138;51.012;4.692;2023-05-09T07:59:50;15.05;;;7.57;;
27746;SDS011;15138;51.012;4.692;2023-05-09T08:02:18;11.43;;;8.45;;
27746;SDS011;15138;51.012;4.692;2023-05-09T08:04:47;9.07;;;7.32;;
27746;SDS011;15138;51.012;4.692;2023-05-09T08:07:15;11.15;;;7.32;;
27746;SDS011;15138;51.012;4.692;2023-05-09T08:09:44;11.40;;;7.25;;
27746;SDS011;15138;51.012;4.692;2023-05-09T08:12:12;10.90;;;6.93;;
27746;SDS011;15138;51.012;4.692;2023-05-09T08:14:42;11.07;;;7.53;;
27746;SDS011;15138;51.012;4.692;2023-05-09T08:17:12;12.35;;;7.70;;
27746;SDS011;15138;51.012;4.692;2023-05-09T08:19:41;9.23;;;6.53;;
27746;SDS011;15138;51.012;4.692;2023-05-09T08:22:14;11.65;;;6.75;;
27746;SDS011;15138;51.012;4.692;2023-05-09T08:24:43;10.30;;;6.63;;
27746;SDS011;15138;51.012;4.692;2023-05-09T08:27:12;14.63;;;7.75;;
27746;SDS011;15138;51.012;4.692;2023-05-09T08:29:41;10.82;;;6.63;;
27746;SDS011;15138;51.012;4.692;2023-05-09T08:32:09;10.57;;;6.85;;
27746;SDS011;15138;51.012;4.692;2023-05-09T08:34:39;14.30;;;6.70;;
27746;SDS011;15138;51.012;4.692;2023-05-09T08:37:08;12.90;;;7.40;;
27746;SDS011;15138;51.012;4.692;2023-05-09T08:39:40;11.63;;;7.63;;
27746;SDS011;15138;51.012;4.692;2023-05-09T08:42:08;13.77;;;7.97;;
27746;SDS011;15138;51.012;4.692;2023-05-09T08:44:37;10.80;;;7.28;;
27746;SDS011;15138;51.012;4.692;2023-05-09T08:47:05;10.98;;;7.22;;
27746;SDS011;15138;51.012;4.692;2023-05-09T08:49:34;12.98;;;7.57;;
27746;SDS011;15138;51.012;4.692;2023-05-09T08:52:04;13.50;;;7.22;;
27746;SDS011;15138;51.012;4.692;2023-05-09T08:54:32;10.32;;;6.40;;
27746;SDS011;15138;51.012;4.692;2023-05-09T08:57:02;12.95;;;6.70;;
27746;SDS011;15138;51.012;4.692;2023-05-09T08:59:30;14.73;;;7.22;;
27746;SDS011;15138;51.012;4.692;2023-05-09T09:02:04;11.38;;;6.25;;
27746;SDS011;15138;51.012;4.692;2023-05-09T09:04:33;10.40;;;6.72;;
27746;SDS011;15138;51.012;4.692;2023-05-09T09:07:04;13.88;;;8.27;;
27746;SDS011;15138;51.012;4.692;2023-05-09T09:09:34;14.20;;;9.88;;
27746;SDS011;15138;51.012;4.692;2023-05-09T09:12:04;15.02;;;9.57;;
27746;SDS011;15138;51.012;4.692;2023-05-09T09:14:34;9.35;;;6.72;;
27746;SDS011;15138;51.012;4.692;2023-05-09T09:17:05;11.85;;;6.82;;
27746;SDS011;15138;51.012;4.692;2023-05-09T09:19:35;10.30;;;6.43;;
27746;SDS011;15138;51.012;4.692;2023-05-09T09:22:05;9.55;;;5.85;;
27746;SDS011;15138;51.012;4.692;2023-05-09T09:24:35;7.68;;;5.00;;
27746;SDS011;15138;51.012;4.692;2023-05-09T09:27:03;8.48;;;5.28;;
27746;SDS011;15138;51.012;4.692;2023-05-09T09:29:32;9.82;;;5.30;;
27746;SDS011;15138;51.012;4.692;2023-05-09T09:32:01;9.07;;;4.85;;
27746;SDS011;15138;51.012;4.692;2023-05-09T09:34:30;6.90;;;5.13;;
27746;SDS011;15138;51.012;4.692;2023-05-09T09:36:59;6.70;;;4.78;;
27746;SDS011;15138;51.012;4.692;2023-05-09T09:39:29;8.48;;;5.07;;
27746;SDS011;15138;51.012;4.692;2023-05-09T09:42:00;8.82;;;4.72;;
27746;SDS011;15138;51.012;4.692;2023-05-09T09:44:36;8.50;;;4.20;;
27746;SDS011;15138;51.012;4.692;2023-05-09T09:47:05;6.95;;;4.03;;
27746;SDS011;15138;51.012;4.692;2023-05-09T09:49:37;6.32;;;4.30;;
27746;SDS011;15138;51.012;4.692;2023-05-09T09:52:12;6.03;;;3.20;;
27746;SDS011;15138;51.012;4.692;2023-05-09T09:54:51;6.22;;;3.80;;
27746;SDS011;15138;51.012;4.692;2023-05-09T09:57:35;5.93;;;3.95;;
27746;SDS011;15138;51.012;4.692;2023-05-09T10:00:05;7.38;;;3.75;;
27746;SDS011;15138;51.012;4.692;2023-05-09T10:02:34;6.85;;;3.45;;
27746;SDS011;15138;51.012;4.692;2023-05-09T10:05:05;6.72;;;3.03;;
27746;SDS011;15138;51.012;4.692;2023-05-09T10:07:34;13.52;;;6.72;;
27746;SDS011;15138;51.012;4.692;2023-05-09T10:10:04;13.93;;;7.18;;
27746;SDS011;15138;51.012;4.692;2023-05-09T10:12:34;7.53;;;4.00;;
27746;SDS011;15138;51.012;4.692;2023-05-09T10:15:04;6.85;;;3.17;;
27746;SDS011;15138;51.012;4.692;2023-05-09T10:17:34;6.63;;;3.30;;
27746;SDS011;15138;51.012;4.692;2023-05-09T10:20:03;7.07;;;3.30;;
27746;SDS011;15138;51.012;4.692;2023-05-09T10:22:32;6.50;;;3.40;;
27746;SDS011;15138;51.012;4.692;2023-05-09T10:25:02;7.07;;;3.25;;
27746;SDS011;15138;51.012;4.692;2023-05-09T10:27:34;5.50;;;3.40;;
27746;SDS011;15138;51.012;4.692;2023-05-09T10:30:03;6.57;;;3.10;;
27746;SDS011;15138;51.012;4.692;2023-05-09T10:32:37;4.65;;;3.13;;
27746;SDS011;15138;51.012;4.692;2023-05-09T10:35:07;6.43;;;3.20;;
27746;SDS011;15138;51.012;4.692;2023-05-09T10:37:39;4.85;;;2.95;;
27746;SDS011;15138;51.012;4.692;2023-05-09T10:40:08;8.82;;;3.30;;
27746;SDS011;15138;51.012;4.692;2023-05-09T10:42:42;7.60;;;3.45;;
27746;SDS011;15138;51.012;4.692;2023-05-09T10:45:11;5.97;;;3.53;;
27746;SDS011;15138;51.012;4.692;2023-05-09T10:47:40;7.07;;;3.20;;
27746;SDS011;15138;51.012;4.692;2023-05-09T10:50:10;9.30;;;4.20;;
27746;SDS011;15138;51.012;4.692;2023-05-09T10:55:33;5.93;;;3.72;;
27746;SDS011;15138;51.012;4.692;2023-05-09T10:58:07;6.88;;;3.72;;
27746;SDS011;15138;51.012;4.692;2023-05-09T11:00:45;6.78;;;4.05;;
27746;SDS011;15138;51.012;4.692;2023-05-09T11:03:14;6.13;;;3.75;;
27746;SDS011;15138;51.012;4.692;2023-05-09T11:05:44;7.65;;;4.32;;
27746;SDS011;15138;51.012;4.692;2023-05-09T11:08:20;7.78;;;4.50;;
27746;SDS011;15138;51.012;4.692;2023-05-09T11:10:48;6.63;;;3.80;;
27746;SDS011;15138;51.012;4.692;2023-05-09T11:13:18;8.13;;;4.25;;
27746;SDS011;15138;51.012;4.692;2023-05-09T11:15:49;6.70;;;4.18;;
27746;SDS011;15138;51.012;4.692;2023-05-09T11:18:18;9.30;;;4.38;;
27746;SDS011;15138;51.012;4.692;2023-05-09T11:20:47;6.63;;;4.30;;
27746;SDS011;15138;51.012;4.692;2023-05-09T11:23:16;7.38;;;4.45;;
27746;SDS011;15138;51.012;4.692;2023-05-09T11:25:45;5.68;;;3.90;;
27746;SDS011;15138;51.012;4.692;2023-05-09T11:28:26;7.47;;;4.20;;
27746;SDS011;15138;51.012;4.692;2023-05-09T11:31:07;9.00;;;5.55;;
27746;SDS011;15138;51.012;4.692;2023-05-09T11:33:36;23.20;;;10.60;;
27746;SDS011;15138;51.012;4.692;2023-05-09T11:36:14;12.95;;;6.18;;
27746;SDS011;15138;51.012;4.692;2023-05-09T11:38:44;6.15;;;3.97;;
27746;SDS011;15138;51.012;4.692;2023-05-09T11:41:12;4.45;;;3.75;;
27746;SDS011;15138;51.012;4.692;2023-05-09T11:43:42;7.45;;;3.67;;
27746;SDS011;15138;51.012;4.692;2023-05-09T11:46:11;10.45;;;3.97;;
27746;SDS011;15138;51.012;4.692;2023-05-09T11:48:39;6.72;;;3.45;;
27746;SDS011;15138;51.012;4.692;2023-05-09T11:51:14;5.40;;;3.85;;
27746;SDS011;15138;51.012;4.692;2023-05-09T11:56:12;7.63;;;3.65;;
27746;SDS011;15138;51.012;4.692;2023-05-09T11:58:42;6.10;;;4.00;;
27746;SDS011;15138;51.012;4.692;2023-05-09T12:01:12;5.13;;;3.90;;
27746;SDS011;15138;51.012;4.692;2023-05-09T12:03:41;6.95;;;3.88;;
27746;SDS011;15138;51.012;4.692;2023-05-09T12:06:12;6.43;;;4.32;;
27746;SDS011;15138;51.012;4.692;2023-05-09T12:08:41;7.15;;;4.20;;
27746;SDS011;15138;51.012;4.692;2023-05-09T12:11:09;6.63;;;4.20;;
27746;SDS011;15138;51.012;4.692;2023-05-09T12:13:44;5.22;;;3.78;;
27746;SDS011;15138;51.012;4.692;2023-05-09T12:16:13;5.88;;;3.80;;
27746;SDS011;15138;51.012;4.692;2023-05-09T12:18:45;8.55;;;3.90;;
27746;SDS011;15138;51.012;4.692;2023-05-09T12:21:14;6.20;;;3.70;;
27746;SDS011;15138;51.012;4.692;2023-05-09T12:23:42;5.75;;;3.88;;
27746;SDS011;15138;51.012;4.692;2023-05-09T12:26:11;8.15;;;3.45;;
27746;SDS011;15138;51.012;4.692;2023-05-09T12:28:39;6.68;;;3.83;;
27746;SDS011;15138;51.012;4.692;2023-05-09T12:31:10;5.63;;;3.80;;
27746;SDS011;15138;51.012;4.692;2023-05-09T12:33:38;6.82;;;3.80;;
27746;SDS011;15138;51.012;4.692;2023-05-09T12:36:08;8.23;;;3.92;;
27746;SDS011;15138;51.012;4.692;2023-05-09T12:38:36;8.02;;;3.63;;
27746;SDS011;15138;51.012;4.692;2023-05-09T12:41:05;5.43;;;2.97;;
27746;SDS011;15138;51.012;4.692;2023-05-09T12:43:47;4.90;;;3.28;;
27746;SDS011;15138;51.012;4.692;2023-05-09T12:46:17;6.85;;;3.63;;
27746;SDS011;15138;51.012;4.692;2023-05-09T12:48:46;6.25;;;3.50;;
27746;SDS011;15138;51.012;4.692;2023-05-09T12:51:16;4.93;;;3.33;;
27746;SDS011;15138;51.012;4.692;2023-05-09T12:53:46;5.93;;;4.10;;
27746;SDS011;15138;51.012;4.692;2023-05-09T12:56:15;5.10;;;3.38;;
27746;SDS011;15138;51.012;4.692;2023-05-09T12:58:47;5.45;;;3.33;;
27746;SDS011;15138;51.012;4.692;2023-05-09T13:01:17;4.25;;;3.08;;
27746;SDS011;15138;51.012;4.692;2023-05-09T13:03:50;5.20;;;2.85;;
27746;SDS011;15138;51.012;4.692;2023-05-09T13:06:18;5.75;;;2.55;;
27746;SDS011;15138;51.012;4.692;2023-05-09T13:08:59;3.63;;;2.30;;
27746;SDS011;15138;51.012;4.692;2023-05-09T13:11:28;5.35;;;1.98;;
27746;SDS011;15138;51.012;4.692;2023-05-09T13:13:56;3.20;;;1.90;;
27746;SDS011;15138;51.012;4.692;2023-05-09T13:16:26;4.80;;;1.70;;
27746;SDS011;15138;51.012;4.692;2023-05-09T13:18:55;2.90;;;1.50;;
27746;SDS011;15138;51.012;4.692;2023-05-09T13:21:23;2.70;;;1.75;;
27746;SDS011;15138;51.012;4.692;2023-05-09T13:23:51;4.85;;;1.60;;
27746;SDS011;15138;51.012;4.692;2023-05-09T13:26:20;3.60;;;1.48;;
27746;SDS011;15138;51.012;4.692;2023-05-09T13:28:48;4.38;;;1.48;;
27746;SDS011;15138;51.012;4.692;2023-05-09T13:31:17;2.13;;;1.42;;
27746;SDS011;15138;51.012;4.692;2023-05-09T13:33:47;2.85;;;1.60;;
27746;SDS011;15138;51.012;4.692;2023-05-09T13:36:17;3.20;;;1.80;;
27746;SDS011;15138;51.012;4.692;2023-05-09T13:38:46;4.70;;;1.90;;
27746;SDS011;15138;51.012;4.692;2023-05-09T13:41:14;2.72;;;1.75;;
27746;SDS011;15138;51.012;4.692;2023-05-09T13:43:46;4.40;;;1.50;;
27746;SDS011;15138;51.012;4.692;2023-05-09T13:46:15;3.90;;;1.60;;
27746;SDS011;15138;51.012;4.692;2023-05-09T13:48:43;3.47;;;2.03;;
27746;SDS011;15138;51.012;4.692;2023-05-09T13:51:14;6.82;;;1.80;;
27746;SDS011;15138;51.012;4.692;2023-05-09T13:53:42;3.92;;;2.55;;
27746;SDS011;15138;51.012;4.692;2023-05-09T13:56:11;4.90;;;2.28;;
27746;SDS011;15138;51.012;4.692;2023-05-09T13:58:39;5.88;;;2.05;;
27746;SDS011;15138;51.012;4.692;2023-05-09T14:01:08;4.88;;;2.50;;
27746;SDS011;15138;51.012;4.692;2023-05-09T14:03:36;3.40;;;1.85;;
27746;SDS011;15138;51.012;4.692;2023-05-09T14:06:05;5.35;;;2.83;;
27746;SDS011;15138;51.012;4.692;2023-05-09T14:08:36;2.72;;;1.80;;
27746;SDS011;15138;51.012;4.692;2023-05-09T14:11:04;4.38;;;1.73;;
27746;SDS011;15138;51.012;4.692;2023-05-09T14:13:34;4.70;;;1.90;;
27746;SDS011;15138;51.012;4.692;2023-05-09T14:16:03;3.38;;;1.60;;
27746;SDS011;15138;51.012;4.692;2023-05-09T14:18:31;2.83;;;1.50;;
27746;SDS011;15138;51.012;4.692;2023-05-09T14:21:00;6.40;;;1.40;;
27746;SDS011;15138;51.012;4.692;2023-05-09T14:23:28;2.83;;;1.48;;
27746;SDS011;15138;51.012;4.692;2023-05-09T14:25:58;3.42;;;2.00;;
27746;SDS011;15138;51.012;4.692;2023-05-09T14:28:27;3.05;;;1.48;;
27746;SDS011;15138;51.012;4.692;2023-05-09T14:30:55;3.20;;;1.50;;
27746;SDS011;15138;51.012;4.692;2023-05-09T14:33:24;2.78;;;1.83;;
27746;SDS011;15138;51.012;4.692;2023-05-09T14:35:53;3.20;;;1.83;;
27746;SDS011;15138;51.012;4.692;2023-05-09T14:38:21;4.68;;;1.35;;
27746;SDS011;15138;51.012;4.692;2023-05-09T14:40:50;3.22;;;1.17;;
27746;SDS011;15138;51.012;4.692;2023-05-09T14:43:19;4.15;;;1.00;;
27746;SDS011;15138;51.012;4.692;2023-05-09T14:45:48;1.38;;;1.10;;
27746;SDS011;15138;51.012;4.692;2023-05-09T14:48:16;3.78;;;0.95;;
27746;SDS011;15138;51.012;4.692;2023-05-09T14:50:45;2.65;;;1.15;;
27746;SDS011;15138;51.012;4.692;2023-05-09T14:53:14;1.23;;;0.98;;
27746;SDS011;15138;51.012;4.692;2023-05-09T14:55:43;1.50;;;1.02;;
27746;SDS011;15138;51.012;4.692;2023-05-09T14:58:12;1.33;;;0.90;;
27746;SDS011;15138;51.012;4.692;2023-05-09T15:00:42;1.65;;;1.00;;
27746;SDS011;15138;51.012;4.692;2023-05-09T15:03:11;4.13;;;1.27;;